createdAt,value
2018-12-15T00:01:44.050Z,62.00
2018-12-15T00:04:15.004Z,62.10
2018-12-15T00:07:00.972Z,62.20
2018-12-15T00:09:30.064Z,62.20
2018-12-15T00:12:05.724Z,62.30
2018-12-15T00:14:34.699Z,62.40
2018-12-15T00:17:05.856Z,62.30
2018-12-15T00:19:34.753Z,62.40
2018-12-15T00:22:03.826Z,62.30
2018-12-15T00:24:32.846Z,62.20
2018-12-15T00:27:01.853Z,62.40
2018-12-15T00:29:31.869Z,62.80
2018-12-15T00:32:00.900Z,62.40
2018-12-15T00:34:29.920Z,62.50
2018-12-15T00:36:58.963Z,62.70
2018-12-15T00:39:28.954Z,62.70
2018-12-15T00:41:58.000Z,62.80
2018-12-15T00:44:26.966Z,63.50
2018-12-15T00:46:57.047Z,62.80
2018-12-15T00:49:26.014Z,62.80
2018-12-15T00:51:55.075Z,62.80
2018-12-15T00:54:24.165Z,62.80
2018-12-15T00:56:53.158Z,62.70
2018-12-15T00:59:22.201Z,62.80
2018-12-15T01:01:51.849Z,62.80
2018-12-15T01:04:20.831Z,62.80
2018-12-15T01:06:49.906Z,62.90
2018-12-15T01:09:19.096Z,62.90
2018-12-15T01:11:48.144Z,62.80
2018-12-15T01:14:17.178Z,62.90
2018-12-15T01:16:46.152Z,62.90
2018-12-15T01:19:15.081Z,62.90
2018-12-15T01:21:44.073Z,62.80
2018-12-15T01:24:13.083Z,62.80
2018-12-15T01:26:42.062Z,62.90
2018-12-15T01:29:11.069Z,62.90
2018-12-15T01:31:41.206Z,62.90
2018-12-15T01:34:10.336Z,62.90
2018-12-15T01:36:39.377Z,62.80
2018-12-15T01:39:08.965Z,62.80
2018-12-15T01:41:39.151Z,62.90
2018-12-15T01:44:08.215Z,62.50
2018-12-15T01:46:37.261Z,62.80
2018-12-15T01:49:06.294Z,62.90
2018-12-15T01:51:35.396Z,62.80
2018-12-15T01:54:04.609Z,62.90
2018-12-15T01:56:33.534Z,62.90
2018-12-15T01:59:02.539Z,62.20
2018-12-15T02:01:31.629Z,63.00
2018-12-15T02:04:00.622Z,63.10
2018-12-15T02:06:29.687Z,62.90
2018-12-15T02:08:58.750Z,62.90
2018-12-15T02:11:29.775Z,62.80
2018-12-15T02:13:58.816Z,63.00
2018-12-15T02:16:28.661Z,63.10
2018-12-15T02:18:57.622Z,63.20
2018-12-15T02:21:26.814Z,63.10
2018-12-15T02:23:55.774Z,63.00
2018-12-15T02:26:24.759Z,63.10
2018-12-15T02:28:53.790Z,62.40
2018-12-15T02:31:24.039Z,63.90
2018-12-15T02:33:53.080Z,63.10
2018-12-15T02:36:22.111Z,63.10
2018-12-15T02:38:51.137Z,63.10
2018-12-15T02:41:20.178Z,62.90
2018-12-15T02:43:49.192Z,63.00
2018-12-15T02:46:18.204Z,62.80
2018-12-15T02:48:47.227Z,63.00
2018-12-15T02:51:16.566Z,63.10
2018-12-15T02:53:45.598Z,63.10
2018-12-15T02:56:14.652Z,63.20
2018-12-15T02:58:43.731Z,63.10
2018-12-15T03:01:12.733Z,63.90
2018-12-15T03:03:41.793Z,63.10
2018-12-15T03:06:10.822Z,62.90
2018-12-15T03:08:39.904Z,63.00
2018-12-15T03:11:09.931Z,63.20
2018-12-15T03:13:39.095Z,63.20
2018-12-15T03:16:08.277Z,63.30
2018-12-15T03:18:37.639Z,63.40
2018-12-15T03:21:06.636Z,63.40
2018-12-15T03:23:35.676Z,63.40
2018-12-15T03:26:04.765Z,63.40
2018-12-15T03:28:33.788Z,63.30
2018-12-15T03:31:02.803Z,63.30
2018-12-15T03:33:31.899Z,63.30
2018-12-15T03:36:00.958Z,63.50
2018-12-15T03:38:29.966Z,63.60
2018-12-15T03:40:59.163Z,63.30
2018-12-15T03:43:28.208Z,64.00
2018-12-15T03:45:57.154Z,63.60
2018-12-15T03:48:26.201Z,63.30
2018-12-15T03:50:55.160Z,63.40
2018-12-15T03:53:24.196Z,63.40
2018-12-15T03:55:53.189Z,63.40
2018-12-15T03:58:22.219Z,63.20
2018-12-15T04:00:51.260Z,63.10
2018-12-15T04:03:20.341Z,63.20
2018-12-15T04:05:49.300Z,63.30
2018-12-15T04:08:18.341Z,63.40
2018-12-15T04:10:47.347Z,63.50
2018-12-15T04:13:16.439Z,63.60
2018-12-15T04:15:45.419Z,63.50
2018-12-15T04:18:14.713Z,63.50
2018-12-15T04:20:43.753Z,63.50
2018-12-15T04:23:12.815Z,63.60
2018-12-15T04:25:42.033Z,63.80
2018-12-15T04:28:11.135Z,63.70
2018-12-15T04:30:40.215Z,63.60
2018-12-15T04:33:09.217Z,63.60
2018-12-15T04:35:38.293Z,63.70
2018-12-15T04:38:07.401Z,63.70
2018-12-15T04:40:36.639Z,63.40
2018-12-15T04:43:05.674Z,63.60
2018-12-15T04:45:34.860Z,63.80
2018-12-15T04:48:10.839Z,63.50
2018-12-15T04:50:35.032Z,63.70
2018-12-15T04:53:04.171Z,63.50
2018-12-15T04:55:33.250Z,63.70
2018-12-15T04:58:02.265Z,63.50
2018-12-15T05:00:31.498Z,63.50
2018-12-15T05:03:00.593Z,63.50
2018-12-15T05:05:29.776Z,63.40
2018-12-15T05:07:58.812Z,64.30
2018-12-15T05:10:27.876Z,63.50
2018-12-15T05:12:56.935Z,63.50
2018-12-15T05:15:25.924Z,63.50
2018-12-15T05:17:54.959Z,63.70
2018-12-15T05:20:23.988Z,63.50
2018-12-15T05:22:53.032Z,63.40
2018-12-15T05:25:22.127Z,63.70
2018-12-15T05:27:51.201Z,63.70
2018-12-15T05:30:20.322Z,63.80
2018-12-15T05:32:49.360Z,63.60
2018-12-15T05:35:18.410Z,63.70
2018-12-15T05:37:47.450Z,63.90
2018-12-15T05:40:16.489Z,63.50
2018-12-15T05:42:45.490Z,63.50
2018-12-15T05:45:14.522Z,63.50
2018-12-15T05:47:43.654Z,63.60
2018-12-15T05:50:12.927Z,63.50
2018-12-15T05:52:41.943Z,63.40
2018-12-15T05:55:10.960Z,63.30
2018-12-15T05:57:39.989Z,63.60
2018-12-15T06:00:09.361Z,63.70
2018-12-15T06:02:38.969Z,63.90
2018-12-15T06:05:08.787Z,64.10
2018-12-15T06:07:37.772Z,64.10
2018-12-15T06:10:07.157Z,64.00
2018-12-15T06:12:36.230Z,64.00
2018-12-15T06:15:06.131Z,63.90
2018-12-15T06:17:35.146Z,64.00
2018-12-15T06:20:05.071Z,63.30
2018-12-15T06:22:34.049Z,64.00
2018-12-15T06:25:03.278Z,63.90
2018-12-15T06:27:32.400Z,64.10
2018-12-15T06:30:01.510Z,64.10
2018-12-15T06:32:31.554Z,63.90
2018-12-15T06:35:00.594Z,63.80
2018-12-15T06:37:29.566Z,63.80
2018-12-15T06:39:58.568Z,64.00
2018-12-15T06:42:28.722Z,64.10
2018-12-15T06:44:57.803Z,64.00
2018-12-15T06:47:26.787Z,63.70
2018-12-15T06:49:55.796Z,63.50
2018-12-15T06:52:24.806Z,63.50
2018-12-15T06:55:00.251Z,63.70
2018-12-15T06:57:29.342Z,63.70
2018-12-15T06:59:58.404Z,63.70
2018-12-15T07:02:27.427Z,63.90
2018-12-15T07:04:56.497Z,63.90
2018-12-15T07:07:25.558Z,63.80
2018-12-15T07:09:54.648Z,63.70
2018-12-15T07:12:23.790Z,63.80
2018-12-15T07:14:52.935Z,63.70
2018-12-15T07:17:21.990Z,63.90
2018-12-15T07:19:51.108Z,63.80
2018-12-15T07:22:20.133Z,63.50
2018-12-15T07:24:49.156Z,63.60
2018-12-15T07:27:18.170Z,63.60
2018-12-15T07:29:47.234Z,63.30
2018-12-15T07:32:16.329Z,63.30
2018-12-15T07:34:45.361Z,63.10
2018-12-15T07:37:14.314Z,63.20
2018-12-15T07:39:43.343Z,63.00
2018-12-15T07:42:12.489Z,63.10
2018-12-15T07:44:41.478Z,63.10
2018-12-15T07:47:10.563Z,63.20
2018-12-15T07:49:39.640Z,63.10
2018-12-15T07:52:08.694Z,63.20
2018-12-15T07:54:37.807Z,63.40
2018-12-15T07:57:06.822Z,63.40
2018-12-15T07:59:35.845Z,63.40
2018-12-15T08:02:04.928Z,63.20
2018-12-15T08:04:34.059Z,63.20
2018-12-15T08:07:03.325Z,63.00
2018-12-15T08:09:33.707Z,62.80
2018-12-15T08:12:08.459Z,62.80
2018-12-15T08:14:37.504Z,63.00
2018-12-15T08:17:06.525Z,63.10
2018-12-15T08:19:35.596Z,62.90
2018-12-15T08:22:04.660Z,62.50
2018-12-15T08:24:33.663Z,61.80
2018-12-15T08:27:02.719Z,61.80
2018-12-15T08:29:31.793Z,61.70
2018-12-15T08:32:00.886Z,61.60
2018-12-15T08:34:29.883Z,61.70
2018-12-15T08:36:59.105Z,62.10
2018-12-15T08:39:28.174Z,61.40
2018-12-15T08:41:57.211Z,61.70
2018-12-15T08:44:26.283Z,61.40
2018-12-15T08:46:55.333Z,61.50
2018-12-15T08:49:24.419Z,61.20
2018-12-15T08:51:53.461Z,60.50
2018-12-15T08:54:22.639Z,60.60
2018-12-15T08:56:51.706Z,60.40
2018-12-15T08:59:20.771Z,60.70
2018-12-15T09:01:49.841Z,60.90
2018-12-15T09:04:18.890Z,60.80
2018-12-15T09:06:47.988Z,60.50
2018-12-15T09:09:17.050Z,60.10
2018-12-15T09:11:46.153Z,60.10
2018-12-15T09:14:15.309Z,59.80
2018-12-15T09:16:44.435Z,60.10
2018-12-15T09:19:13.538Z,59.90
2018-12-15T09:21:42.640Z,60.00
2018-12-15T09:24:11.867Z,60.00
2018-12-15T09:26:41.707Z,60.30
2018-12-15T09:29:10.796Z,60.40
2018-12-15T09:31:42.100Z,60.00
2018-12-15T09:34:11.611Z,59.80
2018-12-15T09:36:40.832Z,60.20
2018-12-15T09:39:10.088Z,60.10
2018-12-15T09:41:39.417Z,59.90
2018-12-15T09:44:08.573Z,60.20
2018-12-15T09:46:37.950Z,59.80
2018-12-15T09:49:07.212Z,59.80
2018-12-15T09:51:36.303Z,59.70
2018-12-15T09:54:05.578Z,59.80
2018-12-15T09:56:34.777Z,59.80
2018-12-15T09:59:03.920Z,59.70
2018-12-15T10:01:33.245Z,59.60
2018-12-15T10:04:02.558Z,59.30
2018-12-15T10:06:31.624Z,59.40
2018-12-15T10:09:00.743Z,59.50
2018-12-15T10:11:31.809Z,59.20
2018-12-15T10:14:01.110Z,58.90
2018-12-15T10:16:30.498Z,59.10
2018-12-15T10:18:59.777Z,59.10
2018-12-15T10:21:29.005Z,59.20
2018-12-15T10:23:58.984Z,59.10
2018-12-15T10:26:28.014Z,58.80
2018-12-15T10:28:57.093Z,58.80
2018-12-15T10:31:31.440Z,58.80
2018-12-15T10:34:00.607Z,58.90
2018-12-15T10:36:29.873Z,59.00
2018-12-15T10:38:58.984Z,58.70
2018-12-15T10:41:28.064Z,58.60
2018-12-15T10:43:57.091Z,58.70
2018-12-15T10:46:28.131Z,58.80
2018-12-15T10:51:35.455Z,58.30
2018-12-15T10:54:04.567Z,58.20
2018-12-15T10:56:34.557Z,58.10
2018-12-15T10:59:07.069Z,58.50
2018-12-15T11:01:36.261Z,58.60
2018-12-15T11:04:05.467Z,58.50
2018-12-15T11:06:34.787Z,58.70
2018-12-15T11:09:05.963Z,58.50
2018-12-15T11:11:37.178Z,58.00
2018-12-15T11:14:07.021Z,58.00
2018-12-15T11:16:36.164Z,58.00
2018-12-15T11:19:05.381Z,58.10
2018-12-15T11:21:34.578Z,58.30
2018-12-15T11:24:03.848Z,58.30
2018-12-15T11:26:32.906Z,58.30
2018-12-15T11:29:02.127Z,58.30
2018-12-15T11:31:32.964Z,58.30
2018-12-15T11:34:02.038Z,58.30
2018-12-15T11:36:31.199Z,58.10
2018-12-15T11:39:00.227Z,58.30
2018-12-15T11:41:29.481Z,58.20
2018-12-15T11:43:58.730Z,58.20
2018-12-15T11:46:27.925Z,58.30
2018-12-15T11:48:57.022Z,58.20
2018-12-15T11:51:26.122Z,58.20
2018-12-15T11:53:55.250Z,58.20
2018-12-15T11:56:24.280Z,58.10
2018-12-15T11:58:53.515Z,57.70
2018-12-15T12:01:22.753Z,57.20
2018-12-15T12:03:51.948Z,57.10
2018-12-15T12:06:21.023Z,57.40
2018-12-15T12:08:50.336Z,57.60
2018-12-15T12:11:19.562Z,57.50
2018-12-15T12:13:48.748Z,57.50
2018-12-15T12:16:17.850Z,57.40
2018-12-15T12:18:48.280Z,57.70
2018-12-15T12:21:17.444Z,57.70
2018-12-15T12:23:46.707Z,57.80
2018-12-15T12:26:17.741Z,57.60
2018-12-15T12:28:46.842Z,57.60
2018-12-15T12:31:17.018Z,57.20
2018-12-15T12:33:46.239Z,57.30
2018-12-15T12:36:15.549Z,57.40
2018-12-15T12:38:44.694Z,57.60
2018-12-15T12:41:13.748Z,57.50
2018-12-15T12:43:42.839Z,57.00
2018-12-15T12:46:11.879Z,57.20
2018-12-15T12:48:41.092Z,57.50
2018-12-15T12:51:10.262Z,57.60
2018-12-15T12:53:39.369Z,57.70
2018-12-15T12:56:08.390Z,57.40
2018-12-15T12:58:37.559Z,57.20
2018-12-15T13:01:06.866Z,57.40
2018-12-15T13:03:35.975Z,57.30
2018-12-15T13:06:04.944Z,57.40
2018-12-15T13:08:34.262Z,57.60
2018-12-15T13:11:03.309Z,57.40
2018-12-15T13:13:33.832Z,56.90
2018-12-15T13:16:03.056Z,57.60
2018-12-15T13:18:32.191Z,57.50
2018-12-15T13:21:01.285Z,57.50
2018-12-15T13:23:30.302Z,57.60
2018-12-15T13:25:59.596Z,57.30
2018-12-15T13:28:28.880Z,57.20
2018-12-15T13:30:57.837Z,57.10
2018-12-15T13:33:34.961Z,57.20
2018-12-15T13:36:17.017Z,57.20
2018-12-15T13:38:46.319Z,57.20
2018-12-15T13:41:22.005Z,56.80
2018-12-15T13:43:51.102Z,56.40
2018-12-15T13:46:20.211Z,56.70
2018-12-15T13:48:49.222Z,56.90
2018-12-15T13:51:18.471Z,56.90
2018-12-15T13:53:47.513Z,56.80
2018-12-15T13:56:16.570Z,56.90
2018-12-15T13:58:45.634Z,57.00
2018-12-15T14:01:14.731Z,56.40
2018-12-15T14:03:43.733Z,56.60
2018-12-15T14:06:12.733Z,56.90
2018-12-15T14:08:41.761Z,56.60
2018-12-15T14:11:10.852Z,56.70
2018-12-15T14:13:39.949Z,56.90
2018-12-15T14:16:09.045Z,56.90
2018-12-15T14:18:38.172Z,56.70
2018-12-15T14:21:07.220Z,56.70
2018-12-15T14:23:36.321Z,56.90
2018-12-15T14:26:05.304Z,56.90
2018-12-15T14:28:34.337Z,56.90
2018-12-15T14:31:03.445Z,56.80
2018-12-15T14:33:32.495Z,56.70
2018-12-15T14:36:01.755Z,56.90
2018-12-15T14:38:30.931Z,56.80
2018-12-15T14:40:59.910Z,57.50
2018-12-15T14:43:28.941Z,56.90
2018-12-15T14:45:57.973Z,56.80
2018-12-15T14:48:27.069Z,56.80
2018-12-15T14:50:56.045Z,56.70
2018-12-15T14:53:25.121Z,56.70
2018-12-15T14:55:54.098Z,56.70
2018-12-15T14:58:23.203Z,56.40
2018-12-15T15:00:52.242Z,56.50
2018-12-15T15:03:21.450Z,56.60
2018-12-15T15:05:50.509Z,56.70
2018-12-15T15:08:19.591Z,56.80
2018-12-15T15:10:48.719Z,56.80
2018-12-15T15:13:17.746Z,56.90
2018-12-15T15:15:46.787Z,56.90
2018-12-15T15:18:15.888Z,57.00
2018-12-15T15:20:44.942Z,56.80
2018-12-15T15:23:14.001Z,56.90
2018-12-15T15:25:43.027Z,56.90
2018-12-15T15:28:12.106Z,57.00
2018-12-15T15:30:41.509Z,56.90
2018-12-15T15:33:10.523Z,56.90
2018-12-15T15:35:39.542Z,56.90
2018-12-15T15:38:08.924Z,56.90
2018-12-15T15:40:38.046Z,56.90
2018-12-15T15:43:07.123Z,56.90
2018-12-15T15:45:36.098Z,57.00
2018-12-15T15:48:05.240Z,57.00
2018-12-15T15:50:36.658Z,57.00
2018-12-15T15:53:05.412Z,57.10
2018-12-15T15:55:34.495Z,57.30
2018-12-15T15:58:03.613Z,57.40
2018-12-15T16:00:32.923Z,57.30
2018-12-15T16:03:02.143Z,57.30
2018-12-15T16:05:31.364Z,57.40
2018-12-15T16:08:00.369Z,57.40
2018-12-15T16:10:29.514Z,57.50
2018-12-15T16:12:58.477Z,58.10
2018-12-15T16:15:27.519Z,57.60
2018-12-15T16:17:56.606Z,57.60
2018-12-15T16:20:25.588Z,57.50
2018-12-15T16:22:54.674Z,57.60
2018-12-15T16:25:23.728Z,57.60
2018-12-15T16:27:52.838Z,57.70
2018-12-15T16:30:21.860Z,57.70
2018-12-15T16:32:50.956Z,57.70
2018-12-15T16:35:19.949Z,57.70
2018-12-15T16:37:49.032Z,57.60
2018-12-15T16:40:18.081Z,57.40
2018-12-15T16:42:47.252Z,57.60
2018-12-15T16:45:16.358Z,57.70
2018-12-15T16:47:45.380Z,57.70
2018-12-15T16:50:14.609Z,57.70
2018-12-15T16:52:44.093Z,57.80
2018-12-15T16:55:13.420Z,57.90
2018-12-15T16:57:42.512Z,58.00
2018-12-15T17:00:14.035Z,58.00
2018-12-15T17:02:44.654Z,58.00
2018-12-15T17:05:13.821Z,58.00
2018-12-15T17:07:42.817Z,58.00
2018-12-15T17:10:12.051Z,58.10
2018-12-15T17:12:42.070Z,58.30
2018-12-15T17:15:11.571Z,58.30
2018-12-15T17:17:40.621Z,58.30
2018-12-15T17:20:10.190Z,58.50
2018-12-15T17:22:39.212Z,58.50
2018-12-15T17:25:09.030Z,58.60
2018-12-15T17:27:38.296Z,58.60
2018-12-15T17:30:09.554Z,58.60
2018-12-15T17:32:39.082Z,58.50
2018-12-15T17:35:08.396Z,58.60
2018-12-15T17:37:37.523Z,58.70
2018-12-15T17:40:08.797Z,58.70
2018-12-15T17:42:38.925Z,58.70
2018-12-15T17:45:08.462Z,58.70
2018-12-15T17:47:38.573Z,58.80
2018-12-15T17:50:09.576Z,58.80
2018-12-15T17:52:40.634Z,59.00
2018-12-15T17:55:09.806Z,58.90
2018-12-15T17:57:38.886Z,58.90
2018-12-15T18:00:10.601Z,58.90
2018-12-15T18:02:40.003Z,58.90
2018-12-15T18:05:09.306Z,59.00
2018-12-15T18:07:38.352Z,59.00
2018-12-15T18:10:08.697Z,59.00
2018-12-15T18:12:37.829Z,59.70
2018-12-15T18:15:07.511Z,59.30
2018-12-15T18:17:36.573Z,59.10
2018-12-15T18:20:06.788Z,59.20
2018-12-15T18:22:35.866Z,59.00
2018-12-15T18:25:05.333Z,59.00
2018-12-15T18:27:34.688Z,59.20
2018-12-15T18:30:05.194Z,59.30
2018-12-15T18:32:34.929Z,59.30
2018-12-15T18:35:04.126Z,59.40
2018-12-15T18:37:33.290Z,59.60
2018-12-15T18:40:02.550Z,59.60
2018-12-15T18:42:31.894Z,59.50
2018-12-15T18:45:00.919Z,59.70
2018-12-15T18:47:31.300Z,59.70
2018-12-15T18:50:00.427Z,59.80
2018-12-15T18:52:29.465Z,59.80
2018-12-15T18:54:58.602Z,59.70
2018-12-15T18:57:27.717Z,59.80
2018-12-15T18:59:56.680Z,59.90
2018-12-15T19:02:25.686Z,60.00
2018-12-15T19:04:54.669Z,60.00
2018-12-15T19:07:23.670Z,60.10
2018-12-15T19:09:52.670Z,60.00
2018-12-15T19:12:21.626Z,60.10
2018-12-15T19:14:50.681Z,60.10
2018-12-15T19:17:19.676Z,60.30
2018-12-15T19:19:48.833Z,60.40
2018-12-15T19:22:17.827Z,60.50
2018-12-15T19:24:46.961Z,60.50
2018-12-15T19:27:16.221Z,61.40
2018-12-15T19:29:45.254Z,60.40
2018-12-15T19:32:14.296Z,60.60
2018-12-15T19:34:43.556Z,60.50
2018-12-15T19:37:12.647Z,60.60
2018-12-15T19:39:41.713Z,60.60
2018-12-15T19:42:10.906Z,60.80
2018-12-15T19:44:40.133Z,60.90
2018-12-15T19:47:09.319Z,60.80
2018-12-15T19:49:38.525Z,60.80
2018-12-15T19:52:07.628Z,60.90
2018-12-15T19:54:36.759Z,60.90
2018-12-15T19:57:05.985Z,60.90
2018-12-15T19:59:34.959Z,60.90
2018-12-15T20:02:04.183Z,61.00
2018-12-15T20:04:33.342Z,61.00
2018-12-15T20:07:02.435Z,61.20
2018-12-15T20:09:31.609Z,61.10
2018-12-15T20:12:00.701Z,61.20
2018-12-15T20:14:29.995Z,61.20
2018-12-15T20:16:58.989Z,61.30
2018-12-15T20:19:28.051Z,61.20
2018-12-15T20:21:57.238Z,62.00
2018-12-15T20:24:26.318Z,61.40
2018-12-15T20:26:55.373Z,61.40
2018-12-15T20:29:24.648Z,61.30
2018-12-15T20:31:53.794Z,61.40
2018-12-15T20:34:22.900Z,62.40
2018-12-15T20:36:51.874Z,61.70
2018-12-15T20:39:20.871Z,61.70
2018-12-15T20:41:49.909Z,61.80
2018-12-15T20:44:18.879Z,62.00
2018-12-15T20:46:47.920Z,62.10
2018-12-15T20:49:16.905Z,62.10
2018-12-15T20:51:45.959Z,62.10
2018-12-15T20:54:18.989Z,62.20
2018-12-15T20:56:48.052Z,62.20
2018-12-15T20:59:17.132Z,62.40
2018-12-15T21:01:46.148Z,62.70
2018-12-15T21:04:15.191Z,62.70
2018-12-15T21:06:44.209Z,62.50
2018-12-15T21:09:13.232Z,62.40
2018-12-15T21:11:42.266Z,62.50
2018-12-15T21:14:11.250Z,62.70
2018-12-15T21:16:40.312Z,62.70
2018-12-15T21:19:09.348Z,62.80
2018-12-15T21:21:38.551Z,62.90
2018-12-15T21:24:08.426Z,62.70
2018-12-15T21:26:37.379Z,62.80
2018-12-15T21:29:06.394Z,62.80
2018-12-15T21:31:35.476Z,62.80
2018-12-15T21:34:08.045Z,62.80
2018-12-15T21:36:36.248Z,62.90
2018-12-15T21:39:07.362Z,63.10
2018-12-15T21:41:38.386Z,63.00
2018-12-15T21:44:07.415Z,63.10
2018-12-15T21:46:36.437Z,63.10
2018-12-15T21:49:05.477Z,63.30
2018-12-15T21:51:34.506Z,63.10
2018-12-15T21:54:03.558Z,63.10
2018-12-15T21:56:32.641Z,63.30
2018-12-15T21:59:01.669Z,63.30
2018-12-15T22:01:30.744Z,63.20
2018-12-15T22:03:59.863Z,63.20
2018-12-15T22:06:28.827Z,63.10
2018-12-15T22:08:57.882Z,63.10
2018-12-15T22:11:26.993Z,63.30
2018-12-15T22:13:56.335Z,63.30
2018-12-15T22:16:25.317Z,63.40
2018-12-15T22:18:54.385Z,63.40
2018-12-15T22:21:23.474Z,63.40
2018-12-15T22:23:52.504Z,63.50
2018-12-15T22:26:21.662Z,63.40
2018-12-15T22:28:50.684Z,63.50
2018-12-15T22:31:19.699Z,63.60
2018-12-15T22:33:48.743Z,63.70
2018-12-15T22:36:17.802Z,63.60
2018-12-15T22:38:46.903Z,63.70
2018-12-15T22:41:16.316Z,63.50
2018-12-15T22:43:45.388Z,63.70
2018-12-15T22:46:14.387Z,63.70
2018-12-15T22:48:43.471Z,63.80
2018-12-15T22:51:12.687Z,64.10
2018-12-15T22:53:41.638Z,63.80
2018-12-15T22:56:10.590Z,64.10
2018-12-15T22:58:39.613Z,64.10
2018-12-15T23:01:11.784Z,64.30
2018-12-15T23:03:42.836Z,64.30
2018-12-15T23:06:12.046Z,64.30
2018-12-15T23:08:41.227Z,64.50
2018-12-15T23:11:10.419Z,64.50
2018-12-15T23:13:39.399Z,65.80
2018-12-15T23:16:08.427Z,65.40
2018-12-15T23:18:37.613Z,66.00
2018-12-15T23:21:06.763Z,66.00
2018-12-15T23:23:35.773Z,66.20
2018-12-15T23:26:04.936Z,66.40
2018-12-15T23:28:33.932Z,66.60
2018-12-15T23:31:03.042Z,66.70
2018-12-15T23:33:32.164Z,66.60
2018-12-15T23:36:01.352Z,66.70
2018-12-15T23:38:30.377Z,66.60
2018-12-15T23:40:59.374Z,66.90
2018-12-15T23:43:28.362Z,67.10
2018-12-15T23:45:57.429Z,66.90
2018-12-15T23:48:26.401Z,67.00
2018-12-15T23:50:55.505Z,67.00
2018-12-15T23:53:24.515Z,67.20
2018-12-15T23:55:53.617Z,67.50
2018-12-15T23:58:22.642Z,67.10
